Diavlos Pride — HO7714 — position and weather

sailwx.info

Track history (hours):
 
Tides and Currents Weather Stations Pressure Air Temp Water Temp Dewpoint Dewpoint Depression Visibility Wind Speed Wind Dir Waves Ship Positions

Diavlos Pride

Last reported at 2018-Jun-22 09:53 UTC. Time now 2018-Jun-24 06:48 UTC.
Position N 47°56' W 006°31'.

; draft 4.8 m.

Type: Tug. MMSI: 374579000.

Date/timePositionNaut miles runAvg speedWind from/ knotsBaromVisibWave heightAir tempDewpointWater temp
2018-Jun-22 09:53N 47°56' W 006°31'9 9.2
2018-Jun-22 08:53N 48°04' W 006°25'11 9.2
2018-Jun-22 07:38N 48°14' W 006°17'2810.1
2018-Jun-22 04:53N 48°39' W 005°57'1010.7
2018-Jun-22 03:58N 48°47' W 005°50'10210.1
2018-Jun-21 17:49N 49°43' W 003°38'310.6
2018-Jun-21 17:30N 49°44' W 003°34'510.4
2018-Jun-21 17:00N 49°47' W 003°27'5 9.9
2018-Jun-21 16:30N 49°49' W 003°20'5 9.6
2018-Jun-21 16:01N 49°51' W 003°14'5 9.4
2018-Jun-21 15:30N 49°54' W 003°07'4 9.1
2018-Jun-21 15:01N 49°56' W 003°01'4 8.9
2018-Jun-21 14:30N 49°58' W 002°55'4 8.7
2018-Jun-21 14:00N 49°59' W 002°49'4 8.5
2018-Jun-21 13:30N 50°00' W 002°42'7610.8
2018-Jun-21 06:29N 50°21' W 000°48'510.8
2018-Jun-21 06:00N 50°23' W 000°40'510.3
2018-Jun-21 05:30N 50°24' W 000°33'26 9.0
2018-Jun-21 02:35N 50°31' E 000°07'1 8.1
2018-Jun-21 02:27N 50°31' E 000°09'5 8.0
2018-Jun-21 01:53N 50°32' E 000°16'3 8.2
2018-Jun-21 01:30N 50°33' E 000°20'4 8.6
2018-Jun-21 01:00N 50°34' E 000°27'5 9.2
2018-Jun-21 00:30N 50°35' E 000°34'5 9.7
2018-Jun-21 00:00N 50°38' E 000°41'510.2
2018-Jun-20 23:30N 50°41' E 000°47'510.5
2018-Jun-20 23:00N 50°44' E 000°54'510.6
2018-Jun-20 22:30N 50°47' E 001°01'510.3
2018-Jun-20 22:00N 50°50' E 001°07'510.1
2018-Jun-20 21:30N 50°53' E 001°14'5 9.7
2018-Jun-20 21:00N 50°56' E 001°20'4 8.6
2018-Jun-20 20:30N 50°59' E 001°24'4 8.0
2018-Jun-20 20:00N 51°02' E 001°29'4 7.5
2018-Jun-20 19:30N 51°04' E 001°33'3 6.8
2018-Jun-20 19:00N 51°07' E 001°37'3 6.7
2018-Jun-20 18:30N 51°10' E 001°40'3 6.7
2018-Jun-20 18:00N 51°12' E 001°43'3 7.0
2018-Jun-20 17:30N 51°15' E 001°47'4 7.6
2018-Jun-20 17:00N 51°18' E 001°50'4 8.1
2018-Jun-20 16:30N 51°22' E 001°53'4 8.8
2018-Jun-20 16:00N 51°26' E 001°56'5 9.5
2018-Jun-20 15:30N 51°29' E 002°02'3 6.7
2018-Jun-20 15:00N 51°31' E 002°06'4 7.3
2018-Jun-20 14:30N 51°34' E 002°09'4 7.1
2018-Jun-20 14:00N 51°37' E 002°13'611.6
2018-Jun-20 13:30N 51°41' E 002°19'611.6
2018-Jun-20 13:00N 51°46' E 002°25'611.3
2018-Jun-20 12:28N 51°51' E 002°30'710.9
2018-Jun-20 11:49N 51°57' E 002°35'410.6
2018-Jun-20 11:29N 52°01' E 002°37'13 9.9
2018-Jun-20 10:13N 52°12' E 002°46'2 9.2
2018-Jun-20 09:59N 52°14' E 002°48'6 9.0
2018-Jun-20 09:18N 52°19' E 002°53'  
2018-Jun-17 14:58N 62°28' E 006°05'6 8.6
2018-Jun-17 14:19N 62°33' E 006°10'8 9.3
2018-Jun-17 13:28N 62°37' E 006°25'17 8.6
2018-Jun-17 11:27N 62°47' E 006°57'2 0.4
2018-Jun-17 05:48N 62°49' E 006°56'1 3.1
2018-Jun-17 05:19N 62°47' E 006°57'17 6.5
2018-Jun-17 02:40N 62°38' E 006°26'4 7.2
2018-Jun-17 02:10N 62°37' E 006°18'5 4.1
2018-Jun-17 00:58N 62°36' E 006°08'4 8.0
2018-Jun-17 00:29N 62°32' E 006°09'3 5.3
2018-Jun-16 23:56N 62°29' E 006°08'  
2018-Jun-13 13:47N 52°54' E 003°19'5 9.2
2018-Jun-13 13:18N 52°49' E 003°17'3 8.9
2018-Jun-13 12:57N 52°47' E 003°15'5 8.4
2018-Jun-13 12:21N 52°42' E 003°14'4 8.0
2018-Jun-13 11:53N 52°38' E 003°13'3 7.6
2018-Jun-13 11:27N 52°35' E 003°13'4 7.1
2018-Jun-13 10:52N 52°30' E 003°12'5 6.7
2018-Jun-13 10:06N 52°25' E 003°12'2 6.5
2018-Jun-13 09:52N 52°24' E 003°12'2 6.4
2018-Jun-13 09:30N 52°22' E 003°11'3 6.2
2018-Jun-13 09:00N 52°19' E 003°10'3 6.1
2018-Jun-13 08:28N 52°15' E 003°10'38 7.0
2018-Jun-13 02:59N 51°44' E 002°33'4 9.0
2018-Jun-13 02:29N 51°41' E 002°28'4 9.2
2018-Jun-13 02:00N 51°38' E 002°24'5 9.4
2018-Jun-13 01:30N 51°34' E 002°18'5 9.7
2018-Jun-13 01:00N 51°31' E 002°13'5 9.2
2018-Jun-13 00:29N 51°26' E 002°11'4 9.2
2018-Jun-13 00:00N 51°22' E 002°10'5 9.4
2018-Jun-12 23:30N 51°17' E 002°07'5 9.4
2018-Jun-12 23:00N 51°14' E 002°02'5 9.6
2018-Jun-12 22:30N 51°11' E 001°55'5 9.6
2018-Jun-12 22:00N 51°09' E 001°49'5 9.3
2018-Jun-12 21:30N 51°06' E 001°43'4 8.5
2018-Jun-12 21:01N 51°03' E 001°38'4 7.9
2018-Jun-12 20:30N 50°60' E 001°34'4 7.4
2018-Jun-12 20:00N 50°57' E 001°31'3 6.6
2018-Jun-12 19:30N 50°54' E 001°29'3 5.8
2018-Jun-12 19:01N 50°51' E 001°27'52 6.1
2018-Jun-12 10:30N 50°22' E 000°19'4 7.7
2018-Jun-12 10:00N 50°21' E 000°13'  
Track history (hours):
 
Tides and Currents Weather Stations Pressure Air Temp Water Temp Dewpoint Dewpoint Depression Visibility Wind Speed Wind Dir Waves Ship Positions

Diavlos Pride

Last reported at 2018-Jun-22 09:53 UTC. Time now 2018-Jun-24 06:48 UTC.
Position N 47°56' W 006°31'.

; draft 4.8 m.

Type: Tug. MMSI: 374579000.

Date/timePositionNaut miles runAvg speedWind from/ knotsBaromVisibWave heightAir tempDewpointWater temp
2018-Jun-22 09:53N 47°56' W 006°31'9 9.2
2018-Jun-22 08:53N 48°04' W 006°25'11 9.2
2018-Jun-22 07:38N 48°14' W 006°17'2810.1
2018-Jun-22 04:53N 48°39' W 005°57'1010.7
2018-Jun-22 03:58N 48°47' W 005°50'10210.1
2018-Jun-21 17:49N 49°43' W 003°38'310.6
2018-Jun-21 17:30N 49°44' W 003°34'510.4
2018-Jun-21 17:00N 49°47' W 003°27'5 9.9
2018-Jun-21 16:30N 49°49' W 003°20'5 9.6
2018-Jun-21 16:01N 49°51' W 003°14'5 9.4
2018-Jun-21 15:30N 49°54' W 003°07'4 9.1
2018-Jun-21 15:01N 49°56' W 003°01'4 8.9
2018-Jun-21 14:30N 49°58' W 002°55'4 8.7
2018-Jun-21 14:00N 49°59' W 002°49'4 8.5
2018-Jun-21 13:30N 50°00' W 002°42'7610.8
2018-Jun-21 06:29N 50°21' W 000°48'510.8
2018-Jun-21 06:00N 50°23' W 000°40'510.3
2018-Jun-21 05:30N 50°24' W 000°33'26 9.0
2018-Jun-21 02:35N 50°31' E 000°07'1 8.1
2018-Jun-21 02:27N 50°31' E 000°09'5 8.0
2018-Jun-21 01:53N 50°32' E 000°16'3 8.2
2018-Jun-21 01:30N 50°33' E 000°20'4 8.6
2018-Jun-21 01:00N 50°34' E 000°27'5 9.2
2018-Jun-21 00:30N 50°35' E 000°34'5 9.7
2018-Jun-21 00:00N 50°38' E 000°41'510.2
2018-Jun-20 23:30N 50°41' E 000°47'510.5
2018-Jun-20 23:00N 50°44' E 000°54'510.6
2018-Jun-20 22:30N 50°47' E 001°01'510.3
2018-Jun-20 22:00N 50°50' E 001°07'510.1
2018-Jun-20 21:30N 50°53' E 001°14'5 9.7
2018-Jun-20 21:00N 50°56' E 001°20'4 8.6
2018-Jun-20 20:30N 50°59' E 001°24'4 8.0
2018-Jun-20 20:00N 51°02' E 001°29'4 7.5
2018-Jun-20 19:30N 51°04' E 001°33'3 6.8
2018-Jun-20 19:00N 51°07' E 001°37'3 6.7
2018-Jun-20 18:30N 51°10' E 001°40'3 6.7
2018-Jun-20 18:00N 51°12' E 001°43'3 7.0
2018-Jun-20 17:30N 51°15' E 001°47'4 7.6
2018-Jun-20 17:00N 51°18' E 001°50'4 8.1
2018-Jun-20 16:30N 51°22' E 001°53'4 8.8
2018-Jun-20 16:00N 51°26' E 001°56'5 9.5
2018-Jun-20 15:30N 51°29' E 002°02'3 6.7
2018-Jun-20 15:00N 51°31' E 002°06'4 7.3
2018-Jun-20 14:30N 51°34' E 002°09'4 7.1
2018-Jun-20 14:00N 51°37' E 002°13'611.6
2018-Jun-20 13:30N 51°41' E 002°19'611.6
2018-Jun-20 13:00N 51°46' E 002°25'611.3
2018-Jun-20 12:28N 51°51' E 002°30'710.9
2018-Jun-20 11:49N 51°57' E 002°35'410.6
2018-Jun-20 11:29N 52°01' E 002°37'13 9.9
2018-Jun-20 10:13N 52°12' E 002°46'2 9.2
2018-Jun-20 09:59N 52°14' E 002°48'6 9.0
2018-Jun-20 09:18N 52°19' E 002°53'  
2018-Jun-17 14:58N 62°28' E 006°05'6 8.6
2018-Jun-17 14:19N 62°33' E 006°10'8 9.3
2018-Jun-17 13:28N 62°37' E 006°25'17 8.6
2018-Jun-17 11:27N 62°47' E 006°57'2 0.4
2018-Jun-17 05:48N 62°49' E 006°56'1 3.1
2018-Jun-17 05:19N 62°47' E 006°57'17 6.5
2018-Jun-17 02:40N 62°38' E 006°26'4 7.2
2018-Jun-17 02:10N 62°37' E 006°18'5 4.1
2018-Jun-17 00:58N 62°36' E 006°08'4 8.0
2018-Jun-17 00:29N 62°32' E 006°09'3 5.3
2018-Jun-16 23:56N 62°29' E 006°08'  
2018-Jun-13 13:47N 52°54' E 003°19'5 9.2
2018-Jun-13 13:18N 52°49' E 003°17'3 8.9
2018-Jun-13 12:57N 52°47' E 003°15'5 8.4
2018-Jun-13 12:21N 52°42' E 003°14'4 8.0
2018-Jun-13 11:53N 52°38' E 003°13'3 7.6
2018-Jun-13 11:27N 52°35' E 003°13'4 7.1
2018-Jun-13 10:52N 52°30' E 003°12'5 6.7
2018-Jun-13 10:06N 52°25' E 003°12'2 6.5
2018-Jun-13 09:52N 52°24' E 003°12'2 6.4
2018-Jun-13 09:30N 52°22' E 003°11'3 6.2
2018-Jun-13 09:00N 52°19' E 003°10'3 6.1
2018-Jun-13 08:28N 52°15' E 003°10'38 7.0
2018-Jun-13 02:59N 51°44' E 002°33'4 9.0
2018-Jun-13 02:29N 51°41' E 002°28'4 9.2
2018-Jun-13 02:00N 51°38' E 002°24'5 9.4
2018-Jun-13 01:30N 51°34' E 002°18'5 9.7
2018-Jun-13 01:00N 51°31' E 002°13'5 9.2
2018-Jun-13 00:29N 51°26' E 002°11'4 9.2
2018-Jun-13 00:00N 51°22' E 002°10'5 9.4
2018-Jun-12 23:30N 51°17' E 002°07'5 9.4
2018-Jun-12 23:00N 51°14' E 002°02'5 9.6
2018-Jun-12 22:30N 51°11' E 001°55'5 9.6
2018-Jun-12 22:00N 51°09' E 001°49'5 9.3
2018-Jun-12 21:30N 51°06' E 001°43'4 8.5
2018-Jun-12 21:01N 51°03' E 001°38'4 7.9
2018-Jun-12 20:30N 50°60' E 001°34'4 7.4
2018-Jun-12 20:00N 50°57' E 001°31'3 6.6
2018-Jun-12 19:30N 50°54' E 001°29'3 5.8
2018-Jun-12 19:01N 50°51' E 001°27'52 6.1
2018-Jun-12 10:30N 50°22' E 000°19'4 7.7
2018-Jun-12 10:00N 50°21' E 000°13'  

Dump ship's entire track history